Terminal Aerodrome Forecast
Issued by NWS

Home | Current Version | Previous Version | Text Only | Print | Product List | Glossary On
Versions: 1 2 3 4 5 6 7 8 9 10 11 12 13 14
951
FTUS42 TJSJ 091125
TAFJPS
TAF
TJPS 091125Z 0912/1012 04005KT P6SM FEW030
     FM091300 13010G15KT P6SM FEW030 FEW050
     FM092300 05005KT P6SM FEW025
      AMD NOT SKED 0912/1003=

USA.gov is the U.S. government's official web portal to all federal, state and local government web resources and services.